Time;durP1;ratioP1;P1;durP2;ratioP2;P2;SDS_P1;SDS_P2;PMS_P1;PMS_P2;Temp;Humidity;BMP_temperature;BMP_pressure;BME280_temperature;BME280_humidity;BME280_pressure;Samples;Min_cycle;Max_cycle;Signal;HPM_P1;HPM_P2
2022/07/28 00:00:50;;;;;;;7.03;4.70;;;;;;;20.54;69.37;98330.34;5055231;28;20560;-94
2022/07/28 00:03:16;;;;;;;7.32;4.70;;;;;;;20.44;69.37;98323.91;5055225;28;20047;-94
2022/07/28 00:05:42;;;;;;;7.78;5.07;;;;;;;20.37;69.13;98328.03;5042121;28;20041;-94
2022/07/28 00:08:09;;;;;;;8.60;4.60;;;;;;;20.33;69.48;98335.50;5054580;28;20043;-95
2022/07/28 00:10:35;;;;;;;6.60;4.45;;;;;;;20.22;70.24;98338.97;5054617;28;20071;-94
2022/07/28 00:13:00;;;;;;;6.97;4.40;;;;;;;20.11;70.62;98330.81;5055178;28;20045;-95
2022/07/28 00:15:26;;;;;;;7.68;4.95;;;;;;;20.10;70.89;98329.06;5054875;28;20115;-93
2022/07/28 00:17:54;;;;;;;8.80;4.82;;;;;;;20.14;70.75;98335.97;5054261;28;20044;-93
2022/07/28 00:20:20;;;;;;;9.88;5.07;;;;;;;20.15;71.33;98334.16;5054656;28;20037;-94
2022/07/28 00:22:46;;;;;;;10.55;5.30;;;;;;;20.18;71.21;98340.19;5053845;28;20045;-92
2022/07/28 00:25:12;;;;;;;9.13;4.82;;;;;;;20.04;71.81;98318.75;5053927;28;20053;-94
2022/07/28 00:27:41;;;;;;;7.50;4.80;;;;;;;20.14;71.85;98335.13;5054423;28;20507;-94
2022/07/28 00:30:08;;;;;;;8.02;4.85;;;;;;;20.18;71.34;98315.88;5054672;28;20510;-94
2022/07/28 00:32:34;;;;;;;8.52;5.50;;;;;;;20.26;71.66;98326.13;5054412;28;20399;-94
2022/07/28 00:35:02;;;;;;;8.60;5.40;;;;;;;20.17;72.14;98315.97;5054444;28;20037;-95
2022/07/28 00:37:28;;;;;;;9.00;5.57;;;;;;;20.09;72.30;98316.56;5054258;28;20036;-93
2022/07/28 00:39:54;;;;;;;8.73;5.38;;;;;;;20.03;73.02;98320.56;5054640;28;20564;-93
2022/07/28 00:42:20;;;;;;;10.00;5.57;;;;;;;19.96;73.17;98313.03;5054838;28;20124;-94
2022/07/28 00:44:46;;;;;;;9.38;5.35;;;;;;;19.94;73.37;98318.53;5046758;28;20474;-94
2022/07/28 00:47:13;;;;;;;9.30;5.43;;;;;;;19.90;73.93;98317.03;5054553;28;20452;-94
2022/07/28 00:49:39;;;;;;;8.02;5.50;;;;;;;19.90;74.35;98307.09;5054610;28;20560;-94
2022/07/28 00:52:08;;;;;;;10.45;5.65;;;;;;;19.90;74.29;98303.53;5054294;28;20064;-94
2022/07/28 00:54:34;;;;;;;9.05;5.97;;;;;;;19.80;74.77;98308.75;5054086;28;20071;-94
2022/07/28 00:57:00;;;;;;;9.98;5.80;;;;;;;19.65;74.83;98296.34;5054750;28;20069;-94
2022/07/28 00:59:26;;;;;;;8.30;5.78;;;;;;;19.69;75.39;98314.94;5054013;28;20060;-94
2022/07/28 01:01:53;;;;;;;10.25;5.78;;;;;;;19.48;75.61;98306.50;5054149;28;20071;-93
2022/07/28 01:04:20;;;;;;;9.63;5.88;;;;;;;19.54;76.01;98317.81;5053607;28;20086;-93
2022/07/28 01:07:01;;;;;;;9.27;5.40;;;;;;;19.42;76.82;98315.00;5053716;28;20033;-94
2022/07/28 01:09:43;;;;;;;7.22;5.65;;;;;;;19.31;77.42;98322.13;5052537;28;20033;-94
2022/07/28 01:12:17;;;;;;;9.77;5.80;;;;;;;19.31;77.39;98317.59;5051948;28;20123;-95
2022/07/28 01:14:48;;;;;;;11.05;6.40;;;;;;;19.29;77.62;98304.22;5053408;28;20037;-95
2022/07/28 01:17:24;;;;;;;12.15;6.13;;;;;;;19.24;77.70;98301.00;5054333;28;20037;-93
2022/07/28 01:19:59;;;;;;;7.35;5.57;;;;;;;19.18;78.40;98303.25;5053837;28;20387;-94
2022/07/28 01:22:31;;;;;;;12.20;5.97;;;;;;;19.20;78.38;98310.25;5052854;28;20049;-94
2022/07/28 01:25:12;;;;;;;10.10;6.18;;;;;;;19.14;78.55;98313.38;5053000;28;20045;-94
2022/07/28 01:27:50;;;;;;;9.82;5.93;;;;;;;19.15;79.15;98319.63;5053315;28;20103;-94
2022/07/28 01:30:40;;;;;;;8.63;6.00;;;;;;;19.15;79.47;98335.78;5053994;28;20470;-94
2022/07/28 01:33:12;;;;;;;10.07;5.50;;;;;;;19.13;80.11;98337.72;5049147;28;20278;-94
2022/07/28 01:35:42;;;;;;;11.52;7.18;;;;;;;19.18;81.21;98325.69;5051873;28;20045;-93
2022/07/28 01:38:10;;;;;;;10.43;6.68;;;;;;;19.18;81.24;98325.69;5052659;28;20044;-93
2022/07/28 01:40:39;;;;;;;9.40;6.20;;;;;;;19.12;81.57;98309.94;5053643;28;20069;-94
2022/07/28 01:43:08;;;;;;;9.02;6.40;;;;;;;19.19;81.62;98315.75;5052842;28;20075;-93
2022/07/28 01:45:36;;;;;;;9.82;6.95;;;;;;;19.14;82.71;98304.44;5051786;28;20041;-94
2022/07/28 01:48:07;;;;;;;11.98;7.57;;;;;;;19.14;83.37;98301.75;5053016;28;20033;-94
2022/07/28 01:50:34;;;;;;;11.57;7.38;;;;;;;19.26;83.90;98312.53;5053071;28;20077;-93
2022/07/28 01:53:01;;;;;;;12.85;7.15;;;;;;;19.18;83.30;98300.56;5052299;28;20389;-93
2022/07/28 01:55:28;;;;;;;12.90;6.90;;;;;;;19.18;84.10;98311.34;5053157;28;20038;-93
2022/07/28 01:57:56;;;;;;;11.82;7.20;;;;;;;19.12;84.29;98296.44;5053725;28;20086;-95
2022/07/28 02:00:25;;;;;;;11.90;7.07;;;;;;;19.27;83.67;98318.78;5053861;28;20037;-94
2022/07/28 02:02:52;;;;;;;12.38;7.38;;;;;;;19.11;82.70;98297.44;5053466;28;20053;-94
2022/07/28 02:05:20;;;;;;;10.73;6.85;;;;;;;19.09;82.62;98302.06;5053418;28;20045;-94
2022/07/28 02:07:48;;;;;;;13.40;6.93;;;;;;;19.16;82.69;98315.97;5053035;28;20065;-94
2022/07/28 02:10:15;;;;;;;11.50;6.82;;;;;;;19.03;82.83;98308.72;5053581;28;20088;-94
2022/07/28 02:12:43;;;;;;;11.27;6.50;;;;;;;19.05;82.90;98319.41;5055530;28;20052;-94
2022/07/28 02:15:12;;;;;;;9.90;6.00;;;;;;;19.01;83.40;98310.66;5056680;28;20069;-93
2022/07/28 02:17:41;;;;;;;11.73;6.97;;;;;;;19.00;83.80;98306.25;5057007;28;20037;-94
2022/07/28 02:20:09;;;;;;;9.27;6.70;;;;;;;19.02;82.92;98319.63;5050551;28;20041;-93
2022/07/28 02:22:38;;;;;;;9.68;6.43;;;;;;;18.87;84.02;98306.25;5056788;28;20044;-93
2022/07/28 02:25:06;;;;;;;13.55;7.32;;;;;;;18.93;84.36;98307.63;5056455;28;20395;-92
2022/07/28 02:27:35;;;;;;;12.90;7.32;;;;;;;18.97;85.32;98319.94;5056528;28;20090;-93
2022/07/28 02:30:06;;;;;;;14.00;7.75;;;;;;;18.97;85.30;98316.38;5056370;28;20489;-94
2022/07/28 02:32:38;;;;;;;11.10;7.45;;;;;;;18.92;85.76;98324.78;5057046;28;20510;-94
2022/07/28 02:35:08;;;;;;;11.88;8.00;;;;;;;18.86;86.54;98309.03;5056464;28;20041;-93
2022/07/28 02:37:38;;;;;;;12.45;7.63;;;;;;;19.06;86.54;98330.09;5056784;28;20060;-94
2022/07/28 02:40:11;;;;;;;12.40;7.68;;;;;;;19.09;85.77;98332.56;5056680;28;20071;-93
2022/07/28 02:42:39;;;;;;;12.23;7.13;;;;;;;19.13;85.32;98333.22;5056832;28;20060;-92
2022/07/28 02:45:08;;;;;;;12.50;7.43;;;;;;;19.12;85.57;98322.53;5056432;28;20045;-93
2022/07/28 02:47:41;;;;;;;12.90;7.40;;;;;;;19.21;85.72;98324.59;5056093;28;20091;-93
2022/07/28 02:50:08;;;;;;;9.95;7.72;;;;;;;19.24;85.32;98327.09;5056598;28;20068;-94
2022/07/28 02:52:37;;;;;;;9.38;6.95;;;;;;;19.17;84.90;98321.28;5051161;28;20049;-93
2022/07/28 02:55:05;;;;;;;11.05;7.70;;;;;;;19.15;85.13;98322.31;5056654;28;20047;-94
2022/07/28 02:57:31;;;;;;;11.25;7.65;;;;;;;19.05;85.22;98320.28;5056346;28;20041;-94
2022/07/28 02:59:57;;;;;;;13.35;7.25;;;;;;;18.99;86.27;98315.31;5056205;28;20037;-93
2022/07/28 03:02:24;;;;;;;13.13;7.50;;;;;;;18.96;86.57;98311.97;5056346;28;20397;-93
2022/07/28 03:05:00;;;;;;;11.32;7.15;;;;;;;19.09;86.83;98321.78;5056203;28;20073;-95
2022/07/28 03:07:27;;;;;;;13.52;8.40;;;;;;;19.15;86.02;98308.84;5055149;28;20037;-93
2022/07/28 03:09:55;;;;;;;10.15;7.20;;;;;;;19.14;86.29;98310.69;5054522;28;20433;-94
2022/07/28 03:12:20;;;;;;;10.68;7.90;;;;;;;19.04;86.73;98302.38;5055467;28;20521;-94
2022/07/28 03:14:46;;;;;;;11.80;7.60;;;;;;;19.09;87.47;98331.72;5055142;28;20049;-93
2022/07/28 03:17:12;;;;;;;12.15;8.27;;;;;;;18.89;88.60;98319.63;5054718;28;20041;-91
2022/07/28 03:19:38;;;;;;;14.75;8.63;;;;;;;18.84;89.34;98313.66;5055393;28;20064;-93
2022/07/28 03:22:04;;;;;;;12.15;7.88;;;;;;;18.95;88.70;98331.78;5055535;28;20048;-92
2022/07/28 03:24:34;;;;;;;13.63;8.70;;;;;;;18.93;88.67;98322.94;5054567;28;20128;-91
2022/07/28 03:27:12;;;;;;;16.45;8.98;;;;;;;18.93;89.34;98333.72;5055219;28;20490;-93
2022/07/28 03:29:40;;;;;;;14.05;8.75;;;;;;;18.83;89.87;98322.72;5055224;28;20049;-93
2022/07/28 03:32:07;;;;;;;14.57;8.75;;;;;;;18.78;90.40;98324.84;5053312;28;20421;-94
2022/07/28 03:34:33;;;;;;;14.75;8.90;;;;;;;18.78;90.50;98327.53;5055258;28;20119;-93
2022/07/28 03:37:04;;;;;;;16.92;8.95;;;;;;;18.82;90.32;98327.25;5055677;28;20491;-93
2022/07/28 03:39:35;;;;;;;14.95;9.13;;;;;;;18.79;90.25;98324.75;5054559;28;20037;-93
2022/07/28 03:42:03;;;;;;;12.85;8.82;;;;;;;18.78;90.88;98328.44;5054929;28;20459;-94
2022/07/28 03:44:29;;;;;;;;;;;;;;;18.84;90.77;98338.75;5055762;28;20132;-93
2022/07/28 03:46:55;;;;;;;13.75;8.40;;;;;;;18.74;91.27;98323.31;5055024;28;20020;-93
2022/07/28 03:49:21;;;;;;;12.40;8.55;;;;;;;18.80;91.01;98333.69;5055428;28;20040;-94
2022/07/28 03:51:47;;;;;;;12.50;8.45;;;;;;;18.73;90.64;98318.88;5055574;28;20048;-94
2022/07/28 03:54:13;;;;;;;12.05;8.00;;;;;;;18.76;90.22;98321.34;5055337;28;20060;-93
2022/07/28 03:56:39;;;;;;;13.80;9.00;;;;;;;18.77;90.70;98329.34;5055829;28;20041;-94
2022/07/28 03:59:06;;;;;;;11.63;7.95;;;;;;;18.79;89.77;98337.34;5055230;28;20051;-94
2022/07/28 04:01:32;;;;;;;13.25;8.77;;;;;;;18.73;89.96;98321.56;5055384;28;20069;-94
2022/07/28 04:03:58;;;;;;;11.18;7.80;;;;;;;18.81;90.17;98335.44;5055213;28;20560;-93
2022/07/28 04:06:24;;;;;;;15.05;8.00;;;;;;;18.77;89.93;98331.19;5054779;28;20045;-93
2022/07/28 04:08:50;;;;;;;13.48;9.15;;;;;;;18.82;91.25;98338.03;5054971;28;20041;-95
2022/07/28 04:11:15;;;;;;;12.88;8.43;;;;;;;18.82;90.53;98339.84;5054756;28;20037;-94
2022/07/28 04:13:41;;;;;;;11.18;7.75;;;;;;;19.00;90.73;98356.59;5055045;28;20052;-93
2022/07/28 04:16:08;;;;;;;12.38;8.10;;;;;;;19.01;90.21;98339.44;5054660;28;20067;-94
2022/07/28 04:18:34;;;;;;;13.10;8.50;;;;;;;19.12;89.91;98344.97;5055002;28;20048;-94
2022/07/28 04:21:00;;;;;;;15.13;8.40;;;;;;;19.04;89.67;98332.03;5053013;28;20370;-93
2022/07/28 04:23:26;;;;;;;12.30;8.20;;;;;;;19.07;89.56;98339.03;5054617;28;20128;-94
2022/07/28 04:25:52;;;;;;;12.55;8.68;;;;;;;19.15;89.77;98351.97;5053998;28;20484;-94
2022/07/28 04:28:17;;;;;;;14.90;8.50;;;;;;;19.15;89.20;98349.28;5054574;28;20390;-93
2022/07/28 04:30:43;;;;;;;13.63;8.70;;;;;;;19.08;89.89;98344.34;5054609;28;20037;-94
2022/07/28 04:33:11;;;;;;;13.10;8.15;;;;;;;19.06;90.07;98343.56;5054564;28;20494;-93
2022/07/28 04:35:36;;;;;;;13.63;8.48;;;;;;;19.14;89.55;98350.25;5054171;28;20025;-93
2022/07/28 04:38:02;;;;;;;14.57;8.88;;;;;;;19.17;89.11;98345.53;5054252;28;20037;-93
2022/07/28 04:40:28;;;;;;;14.68;8.43;;;;;;;19.27;88.50;98353.81;5054290;28;20132;-93
2022/07/28 04:42:54;;;;;;;14.32;8.35;;;;;;;19.30;89.16;98356.34;5054412;28;20056;-94
2022/07/28 04:45:21;;;;;;;12.65;8.27;;;;;;;19.31;88.60;98352.66;5054179;28;20128;-93
2022/07/28 04:47:46;;;;;;;12.45;8.43;;;;;;;19.27;89.17;98334.97;5054255;28;20037;-93
2022/07/28 04:50:16;;;;;;;15.50;9.38;;;;;;;19.31;89.52;98349.94;5054044;28;20102;-93
2022/07/28 04:52:42;;;;;;;13.63;8.75;;;;;;;19.37;89.49;98360.31;5052914;28;20053;-93
2022/07/28 04:55:08;;;;;;;14.30;8.68;;;;;;;19.38;89.51;98356.63;5053215;28;20037;-94
2022/07/28 04:57:34;;;;;;;17.63;9.68;;;;;;;19.31;89.97;98359.88;5052850;28;20073;-92
2022/07/28 05:00:00;;;;;;;13.75;9.25;;;;;;;19.34;90.14;98365.06;5053557;28;20064;-94
2022/07/28 05:02:26;;;;;;;15.18;9.82;;;;;;;19.44;89.17;98360.75;5053322;28;20037;-92
2022/07/28 05:04:52;;;;;;;15.68;9.73;;;;;;;19.36;89.81;98361.28;5053124;28;20069;-92
2022/07/28 05:07:19;;;;;;;15.35;10.30;;;;;;;19.36;90.31;98368.50;5053086;28;20127;-94
2022/07/28 05:09:45;;;;;;;13.57;9.27;;;;;;;19.46;88.97;98375.00;5052727;28;20032;-92
2022/07/28 05:12:11;;;;;;;17.13;10.23;;;;;;;19.54;88.50;98369.94;5052996;28;20094;-91
2022/07/28 05:14:37;;;;;;;15.48;9.57;;;;;;;19.74;87.41;98340.72;5053485;28;20067;-92
2022/07/28 05:17:03;;;;;;;17.27;9.60;;;;;;;20.20;84.87;98350.88;5052496;28;20596;-92
2022/07/28 05:19:29;;;;;;;15.23;9.20;;;;;;;20.40;83.73;98350.25;5052546;28;20159;-94
2022/07/28 05:21:55;;;;;;;14.43;9.85;;;;;;;20.85;81.72;98361.34;5052976;28;20045;-91
2022/07/28 05:24:22;;;;;;;14.30;8.52;;;;;;;21.24;79.11;98358.41;5052750;28;20037;-93
2022/07/28 05:26:48;;;;;;;13.98;8.82;;;;;;;21.58;77.49;98363.91;5052823;28;20419;-93
2022/07/28 05:29:13;;;;;;;12.20;8.90;;;;;;;21.86;74.68;98349.03;5053218;28;20041;-93
2022/07/28 05:31:39;;;;;;;14.25;8.85;;;;;;;22.01;73.63;98339.72;5053198;28;20044;-94
2022/07/28 05:34:05;;;;;;;13.00;8.20;;;;;;;22.29;73.33;98372.69;5050057;28;20041;-93
2022/07/28 05:36:33;;;;;;;13.20;8.25;;;;;;;22.26;73.23;98362.13;5052688;28;20128;-95
2022/07/28 05:38:59;;;;;;;12.13;8.98;;;;;;;22.41;71.69;98363.56;5052606;28;20055;-93
2022/07/28 05:41:26;;;;;;;13.43;8.60;;;;;;;22.56;70.96;98346.03;5052926;28;20417;-93
2022/07/28 05:43:52;;;;;;;14.75;9.15;;;;;;;22.67;70.60;98355.13;5052593;28;20044;-94
2022/07/28 05:46:18;;;;;;;12.10;8.13;;;;;;;22.69;70.18;98350.44;5052801;28;20040;-92
2022/07/28 05:48:45;;;;;;;14.55;9.07;;;;;;;22.62;71.44;98360.06;5055996;28;20136;-93
2022/07/28 05:51:11;;;;;;;15.60;9.15;;;;;;;22.47;71.80;98364.91;5056735;28;20037;-92
2022/07/28 05:53:37;;;;;;;14.00;8.77;;;;;;;22.34;72.44;98352.38;5055978;28;20094;-93
2022/07/28 05:56:03;;;;;;;14.93;8.88;;;;;;;22.55;72.46;98348.88;5057548;28;20049;-94
2022/07/28 05:58:30;;;;;;;14.57;8.07;;;;;;;22.66;71.30;98358.81;5057070;28;20485;-92
2022/07/28 06:00:57;;;;;;;15.07;8.35;;;;;;;22.75;70.66;98356.22;5057184;28;20425;-94
2022/07/28 06:03:23;;;;;;;13.88;8.07;;;;;;;22.96;70.30;98360.81;5058728;28;20029;-96
2022/07/28 06:05:50;;;;;;;11.30;8.25;;;;;;;23.21;69.92;98365.03;5057158;28;20044;-95
2022/07/28 06:08:15;;;;;;;12.88;8.18;;;;;;;23.31;69.25;98367.81;5057287;28;20486;-94
2022/07/28 06:13:45;;;;;;;11.90;7.95;;;;;;;23.41;68.19;98351.63;5103585;27;20385;-95
2022/07/28 06:16:10;;;;;;;13.98;8.05;;;;;;;23.74;67.52;98369.50;5071278;28;20064;-94
2022/07/28 06:18:36;;;;;;;13.40;7.93;;;;;;;23.94;66.57;98362.34;5071366;28;20075;-94
2022/07/28 06:21:02;;;;;;;11.38;7.72;;;;;;;23.94;65.98;98351.50;5071056;28;20036;-94
2022/07/28 06:23:30;;;;;;;14.25;7.70;;;;;;;23.81;67.20;98334.56;5071122;28;20047;-93
2022/07/28 06:25:59;;;;;;;11.35;7.90;;;;;;;23.72;66.79;98344.34;5070078;28;20402;-94
2022/07/28 06:28:25;;;;;;;10.73;8.00;;;;;;;23.94;66.42;98341.50;5070778;28;20041;-94
2022/07/28 06:30:54;;;;;;;13.45;8.35;;;;;;;24.10;66.30;98343.72;5069893;28;20087;-93
2022/07/28 06:33:19;;;;;;;10.32;7.30;;;;;;;24.28;65.44;98335.75;5070250;28;20037;-93
2022/07/28 06:35:45;;;;;;;12.55;7.95;;;;;;;24.63;64.88;98366.19;5068624;28;20140;-92
2022/07/28 06:38:11;;;;;;;13.10;8.25;;;;;;;24.53;64.22;98337.13;5070892;28;20041;-93
2022/07/28 06:40:37;;;;;;;11.57;7.40;;;;;;;24.57;64.20;98345.84;5070024;28;20047;-94
2022/07/28 10:38:36;;;;;;;9.32;6.72;;;;;;;32.92;33.70;98298.75;5129921;27;20867;-91
2022/07/28 10:41:05;;;;;;;9.82;7.03;;;;;;;32.92;32.81;98288.63;5132280;28;20536;-91
2022/07/28 10:43:31;;;;;;;9.10;6.90;;;;;;;33.11;32.37;98278.84;5132673;27;20492;-92
2022/07/28 10:45:58;;;;;;;14.82;6.55;;;;;;;33.26;31.35;98289.78;5133316;28;20118;-92
2022/07/28 10:48:24;;;;;;;9.57;6.80;;;;;;;33.31;31.38;98287.31;5134183;27;20454;-95
2022/07/28 10:50:50;;;;;;;10.52;7.13;;;;;;;33.05;32.42;98282.38;5134322;27;20047;-92
2022/07/28 10:53:30;;;;;;;13.60;6.85;;;;;;;33.36;32.17;98281.19;5133697;27;20043;-92
2022/07/28 10:56:06;;;;;;;9.20;7.25;;;;;;;32.94;31.29;98293.91;5130357;28;20066;-93
2022/07/28 10:58:45;;;;;;;12.05;7.00;;;;;;;32.87;31.49;98288.34;5135758;28;20040;-94
2022/07/28 11:01:10;;;;;;;10.82;7.30;;;;;;;32.58;31.51;98289.31;5137176;28;20100;-92
2022/07/28 11:03:42;;;;;;;8.80;6.47;;;;;;;32.86;29.95;98280.28;5135896;28;20031;-92
2022/07/28 11:06:28;;;;;;;9.00;6.28;;;;;;;33.18;28.66;98284.41;5131900;27;20127;-93
2022/07/28 11:08:55;;;;;;;9.05;6.30;;;;;;;33.51;27.65;98283.88;5131718;28;20483;-93
2022/07/28 11:11:43;;;;;;;8.15;6.05;;;;;;;33.91;27.72;98292.44;5131034;27;20737;-93
2022/07/28 11:14:30;;;;;;;8.30;6.15;;;;;;;34.03;26.89;98295.44;5128238;27;20050;-93
2022/07/28 11:17:14;;;;;;;10.85;6.15;;;;;;;33.85;28.03;98287.72;5134185;27;20065;-93
2022/07/28 11:19:51;;;;;;;9.98;6.30;;;;;;;34.02;27.46;98289.09;5133698;27;20039;-91
2022/07/28 11:22:26;;;;;;;8.93;6.53;;;;;;;34.19;28.05;98278.59;5133343;28;20208;-92
2022/07/28 11:25:15;;;;;;;8.82;6.38;;;;;;;34.24;27.16;98289.88;5133986;28;20134;-93
2022/07/28 11:28:03;;;;;;;8.43;6.22;;;;;;;33.69;28.78;98275.94;5134727;27;20395;-93
2022/07/28 11:30:51;;;;;;;8.90;6.40;;;;;;;33.91;28.33;98285.00;5132850;28;20046;-93
2022/07/28 11:33:19;;;;;;;9.68;6.53;;;;;;;33.32;28.47;98274.38;5136522;28;20104;-93
2022/07/28 11:35:55;;;;;;;9.63;6.47;;;;;;;33.64;27.42;98267.44;5133178;27;20093;-91
2022/07/28 11:38:22;;;;;;;7.78;6.40;;;;;;;33.78;27.54;98276.66;5131837;28;20495;-94
2022/07/28 11:40:50;;;;;;;9.77;6.45;;;;;;;33.68;27.90;98248.56;5132953;27;20044;-93
2022/07/28 11:43:28;;;;;;;;;;;;;;;34.02;26.11;98261.50;5134109;27;20039;-95
2022/07/28 11:46:29;;;;;;;9.02;6.13;;;;;;;33.92;26.04;98267.41;5130704;27;20003;-94
2022/07/28 11:49:18;;;;;;;9.63;6.63;;;;;;;33.75;27.23;98264.13;5126497;27;20089;-96
2022/07/28 11:52:10;;;;;;;9.63;6.60;;;;;;;33.79;27.24;98253.53;5119254;28;20484;-94
2022/07/28 11:54:37;;;;;;;15.95;7.00;;;;;;;33.67;27.45;98258.75;5120065;28;20039;-94
2022/07/28 11:57:04;;;;;;;12.05;7.22;;;;;;;33.46;27.60;98232.06;5121697;28;20035;-94
2022/07/28 11:59:51;;;;;;;12.77;6.90;;;;;;;34.00;28.01;98240.69;5118624;28;20373;-94
2022/07/28 12:02:19;;;;;;;8.27;6.65;;;;;;;34.25;26.72;98235.53;5118840;28;20067;-92
2022/07/28 12:04:52;;;;;;;8.63;6.82;;;;;;;34.48;27.07;98235.19;5117378;28;20039;-93
2022/07/28 12:07:18;;;;;;;9.48;6.30;;;;;;;34.70;26.19;98244.19;5117612;27;20044;-92
2022/07/28 12:09:45;;;;;;;9.23;6.40;;;;;;;34.66;26.04;98220.84;5116589;28;20395;-92
2022/07/28 12:12:10;;;;;;;8.00;6.32;;;;;;;34.87;26.25;98228.91;5117711;28;20047;-93
2022/07/28 12:14:41;;;;;;;9.07;6.68;;;;;;;34.57;24.95;98222.91;5117692;28;20118;-91
2022/07/28 12:17:09;;;;;;;11.18;6.40;;;;;;;34.53;25.92;98216.94;5118010;28;20414;-90
2022/07/28 12:19:35;;;;;;;9.63;6.15;;;;;;;34.76;25.00;98226.78;5117153;28;20051;-92
2022/07/28 12:22:01;;;;;;;9.05;6.22;;;;;;;34.89;25.25;98226.78;5117364;28;20080;-91
2022/07/28 12:24:28;;;;;;;9.98;6.47;;;;;;;35.02;24.53;98225.94;5115858;28;20097;-92
2022/07/28 12:26:56;;;;;;;7.90;5.90;;;;;;;35.16;24.10;98240.66;5113213;28;20035;-94
2022/07/28 12:29:22;;;;;;;8.00;6.40;;;;;;;34.84;23.93;98234.03;5118173;28;20066;-92
2022/07/28 12:31:53;;;;;;;9.02;6.47;;;;;;;34.91;23.50;98224.66;5118526;28;20572;-91
2022/07/28 12:34:21;;;;;;;8.85;6.00;;;;;;;35.11;23.80;98212.75;5118162;28;20108;-92
2022/07/28 12:36:49;;;;;;;8.00;6.03;;;;;;;35.32;23.56;98225.56;5116994;28;20050;-92
2022/07/28 12:39:17;;;;;;;7.45;6.20;;;;;;;35.33;24.08;98224.50;5118044;28;20482;-95
2022/07/28 12:41:43;;;;;;;7.55;5.90;;;;;;;35.29;23.07;98204.72;5118403;28;20047;-92
2022/07/28 12:47:10;;;;;;;9.10;6.50;;;;;;;35.61;23.70;98217.84;5133455;27;20382;-92
2022/07/28 12:49:38;;;;;;;8.55;6.10;;;;;;;35.25;21.71;98208.97;5131734;28;20071;-92
2022/07/28 12:52:14;;;;;;;9.60;6.13;;;;;;;34.91;22.57;98215.53;5132957;27;20065;-94
2022/07/28 12:54:40;;;;;;;9.07;6.07;;;;;;;34.39;21.41;98201.38;5132894;28;20061;-93
2022/07/28 12:57:06;;;;;;;10.25;5.95;;;;;;;34.56;20.75;98186.13;5134594;27;20039;-92
2022/07/28 12:59:32;;;;;;;7.53;5.38;;;;;;;34.60;21.63;98188.50;5132971;27;20032;-90
2022/07/28 13:01:59;;;;;;;8.07;5.43;;;;;;;35.05;22.24;98191.53;5132268;27;20468;-93
2022/07/28 13:04:43;;;;;;;8.70;5.85;;;;;;;35.42;20.85;98191.97;5132932;27;20107;-90
2022/07/28 13:07:11;;;;;;;6.50;5.65;;;;;;;35.60;21.26;98181.06;5131622;28;20074;-93
2022/07/28 13:09:40;;;;;;;;;;;;;;;35.58;21.04;98183.19;5132830;27;20043;-91
2022/07/28 13:12:13;;;;;;;12.13;5.55;;;;;;;35.74;20.85;98185.53;5130440;28;19920;-91
2022/07/28 13:14:41;;;;;;;8.48;5.13;;;;;;;35.86;19.28;98166.31;5131958;28;20036;-92
2022/07/28 13:17:06;;;;;;;8.13;5.10;;;;;;;35.95;19.62;98176.06;5131110;27;20126;-93
2022/07/28 13:19:32;;;;;;;10.82;6.60;;;;;;;35.88;22.06;98174.41;5132625;27;20062;-91
2022/07/28 13:22:00;;;;;;;10.60;6.53;;;;;;;35.68;21.72;98177.25;5131478;27;20399;-92
2022/07/28 13:24:28;;;;;;;10.75;6.53;;;;;;;34.36;23.83;98154.91;5130899;27;20059;-92
2022/07/28 13:26:54;;;;;;;9.13;6.53;;;;;;;34.96;23.72;98172.41;5131436;27;20027;-91
2022/07/28 13:29:21;;;;;;;8.85;6.45;;;;;;;34.97;23.44;98146.47;5131736;27;20045;-92
2022/07/28 13:31:47;;;;;;;8.40;5.68;;;;;;;35.14;22.93;98151.59;5131609;27;20036;-90
2022/07/28 13:34:13;;;;;;;8.65;5.80;;;;;;;35.45;21.00;98156.41;5131608;28;20039;-93
2022/07/28 13:36:39;;;;;;;7.60;5.28;;;;;;;35.33;19.87;98153.47;5131518;27;20038;-93
2022/07/28 13:39:09;;;;;;;8.50;6.15;;;;;;;34.22;21.78;98153.16;5132086;27;20414;-94
2022/07/28 13:41:35;;;;;;;8.13;5.70;;;;;;;34.66;22.09;98152.63;5128210;27;20067;-93
2022/07/28 13:44:01;;;;;;;8.65;5.53;;;;;;;34.95;21.56;98143.06;5126813;27;20122;-93
2022/07/28 13:46:27;;;;;;;9.73;5.93;;;;;;;35.28;21.72;98150.50;5132919;27;20111;-93
2022/07/28 13:48:53;;;;;;;8.15;6.60;;;;;;;34.91;22.23;98144.53;5135664;27;20031;-92
2022/07/28 13:51:19;;;;;;;10.32;6.32;;;;;;;35.20;22.53;98133.28;5134539;27;20040;-94
2022/07/28 13:53:45;;;;;;;9.15;6.10;;;;;;;35.57;21.34;98126.19;5131840;27;20500;-93
2022/07/28 13:56:12;;;;;;;7.60;5.63;;;;;;;35.42;21.24;98120.06;5129689;27;20043;-95
2022/07/28 13:58:38;;;;;;;7.70;6.00;;;;;;;34.95;22.10;98129.25;5116999;28;20046;-92
2022/07/28 14:01:04;;;;;;;7.28;5.78;;;;;;;34.83;22.46;98119.94;5124172;27;20043;-93
2022/07/28 14:03:31;;;;;;;9.27;6.35;;;;;;;35.20;22.24;98100.13;5114219;28;20043;-91
2022/07/28 14:05:57;;;;;;;8.80;6.25;;;;;;;35.40;21.81;98113.91;5127163;27;20115;-92
2022/07/28 14:08:23;;;;;;;10.75;6.07;;;;;;;35.59;21.84;98110.22;5147171;27;20043;-92
2022/07/28 14:10:51;;;;;;;7.82;6.30;;;;;;;35.78;21.87;98120.41;5143055;27;20447;-93
2022/07/28 14:13:19;;;;;;;10.30;6.03;;;;;;;34.94;22.19;98105.47;5140333;27;20151;-93
2022/07/28 14:15:45;;;;;;;8.82;5.95;;;;;;;35.21;21.78;98123.94;5139034;27;20039;-94
2022/07/28 14:18:11;;;;;;;9.50;6.22;;;;;;;34.46;23.04;98104.78;5140278;27;20046;-92
2022/07/28 14:20:38;;;;;;;9.02;6.38;;;;;;;35.15;22.50;98128.41;5143361;27;20070;-90
2022/07/28 14:23:04;;;;;;;8.02;6.53;;;;;;;35.54;23.00;98115.56;5138801;27;20053;-91
2022/07/28 14:25:30;;;;;;;7.53;6.15;;;;;;;35.75;24.33;98095.09;5145036;27;20046;-93
2022/07/28 14:27:56;;;;;;;9.25;6.97;;;;;;;35.76;24.41;98105.06;5148549;27;20043;-91
2022/07/28 14:30:25;;;;;;;9.15;6.55;;;;;;;35.14;25.24;98115.66;5149463;27;20039;-94
2022/07/28 14:32:51;;;;;;;11.40;7.00;;;;;;;35.58;24.78;98106.59;5141962;27;20029;-91
2022/07/28 14:35:17;;;;;;;10.35;6.82;;;;;;;35.75;24.82;98115.28;5136322;27;20519;-91
2022/07/28 14:37:43;;;;;;;12.00;6.75;;;;;;;35.79;24.94;98115.72;5133431;27;20050;-91
2022/07/28 14:40:09;;;;;;;9.45;6.90;;;;;;;36.17;24.46;98120.41;5135532;27;20100;-92
2022/07/28 14:42:35;;;;;;;8.20;6.63;;;;;;;35.71;24.58;98119.56;5135222;27;20491;-91
2022/07/28 14:45:04;;;;;;;12.13;7.38;;;;;;;34.69;25.47;98109.94;5138017;27;20499;-93
2022/07/28 14:47:31;;;;;;;9.20;6.45;;;;;;;34.75;25.63;98109.09;5136764;27;20160;-91
2022/07/28 14:49:57;;;;;;;11.60;6.90;;;;;;;34.54;25.39;98130.28;5137656;27;20092;-93
2022/07/28 14:52:23;;;;;;;10.13;6.78;;;;;;;35.31;24.67;98113.31;5136170;27;20763;-91
2022/07/28 14:54:49;;;;;;;9.98;6.53;;;;;;;35.93;23.45;98122.00;5136266;27;20118;-93
2022/07/28 14:57:15;;;;;;;11.43;6.85;;;;;;;35.50;23.74;98112.38;5145353;27;20099;-93
2022/07/28 14:59:41;;;;;;;9.35;7.18;;;;;;;34.57;24.47;98099.50;5148037;27;20095;-93
2022/07/28 15:02:07;;;;;;;11.15;6.75;;;;;;;34.05;25.37;98098.34;5143221;27;20088;-94
2022/07/28 15:04:34;;;;;;;11.30;6.68;;;;;;;34.02;25.73;98117.19;5141668;27;20039;-92
2022/07/28 15:07:01;;;;;;;9.50;6.47;;;;;;;33.78;26.00;98102.91;5137240;27;20126;-92
2022/07/28 15:09:27;;;;;;;10.32;6.50;;;;;;;33.70;26.06;98109.47;5142859;27;20283;-95
2022/07/28 15:11:53;;;;;;;9.88;6.60;;;;;;;33.58;26.16;98111.06;5143072;27;20058;-93
2022/07/28 15:14:19;;;;;;;11.02;6.70;;;;;;;33.50;26.08;98083.66;5140278;27;20035;-93
2022/07/28 15:16:45;;;;;;;9.80;6.47;;;;;;;33.75;26.34;98097.81;5136799;27;20035;-92
2022/07/28 15:19:11;;;;;;;11.85;7.10;;;;;;;33.85;26.37;98086.38;5135849;27;20045;-91
2022/07/28 15:21:39;;;;;;;10.40;6.35;;;;;;;33.83;25.90;98094.88;5139649;27;20492;-92
2022/07/28 15:24:07;;;;;;;10.07;6.65;;;;;;;33.85;26.48;98100.16;5143849;27;20042;-92
2022/07/28 15:26:33;;;;;;;9.68;7.32;;;;;;;33.48;29.56;98103.16;5143752;27;20022;-94
2022/07/28 15:28:59;;;;;;;11.38;6.85;;;;;;;33.10;30.56;98114.63;5134782;27;20043;-92
2022/07/28 15:31:25;;;;;;;9.93;7.43;;;;;;;32.97;31.61;98113.66;5133792;27;20039;-90
2022/07/28 15:33:51;;;;;;;12.80;7.60;;;;;;;32.74;32.09;98115.59;5139626;27;20039;-93
2022/07/28 15:36:17;;;;;;;10.18;7.50;;;;;;;32.69;32.62;98128.25;5144901;27;20045;-90